Main page
METAR-TAF:

METAR-TAF

Airports :

George Best Belfast City Airport

Belfast City, Northern Ireland

latitude: 54-36N, longitude: 005-53W, elevation: 5 m

Current weather observation

The report was made 17 minutes ago, at 08:50 UTC
Wind 14 kt from the Southwest
Temperature 17°C
Humidity 77%
Pressure 1009 hPa
Visibility 10 km or more

METAR: EGAC 150850Z AUTO 22014KT 9999 BKN026/// 17/13 Q1009

Time: 10:07 (09:07 UTC)

Forecast

The report was made 1 hour and 13 minutes ago, at 07:54 UTC
Forecast valid from 15 at 09 UTC to 15 at 18 UTC
Wind 14 kt from the Southwest
Visibility 10 km or more
Few clouds at a height of 1800 ft
Temporary
from 15 at 09 UTC to 15 at 15 UTC
Wind 17 kt from the Southwest with gusts up to 27 kt

TAF: EGAC 150754Z 1509/1518 23014KT 9999 FEW018 TEMPO 1509/1515 22017G27KT

Weather observations and forecasts of more than 4000 airports (METAR and TAF reports).

The available stations are represented by yellow and red dots on the map.

Hover mouse over dot to see the name of the station.

Then click to see weather observations and forecasts.

To change the map : click on the green buttons with a black cross to zoom in, on the green button with a dash to zoom out, or on the green arrows for adjacent maps.


METAR-TAF: